createdAt,value
2022-11-09T00:01:35.356Z,46.30
2022-11-09T00:04:05.189Z,47.90
2022-11-09T00:06:35.536Z,47.43
2022-11-09T00:09:08.015Z,46.17
2022-11-09T00:11:37.632Z,46.27
2022-11-09T00:14:06.208Z,45.63
2022-11-09T00:16:34.611Z,43.63
2022-11-09T00:19:02.816Z,45.77
2022-11-09T00:21:31.002Z,43.30
2022-11-09T00:24:00.593Z,43.73
2022-11-09T00:26:28.883Z,43.53
2022-11-09T00:28:57.117Z,43.23
2022-11-09T00:31:26.362Z,42.97
2022-11-09T00:33:56.464Z,44.43
2022-11-09T00:36:26.379Z,43.10
2022-11-09T00:38:57.539Z,44.37
2022-11-09T00:41:27.855Z,42.27
2022-11-09T00:43:56.055Z,44.47
2022-11-09T00:46:24.475Z,42.30
2022-11-09T00:48:52.994Z,40.73
2022-11-09T00:51:21.318Z,40.03
2022-11-09T00:53:53.836Z,40.27
2022-11-09T00:56:22.436Z,39.43
2022-11-09T00:58:54.646Z,40.87
2022-11-09T01:01:23.099Z,39.43
2022-11-09T01:03:51.369Z,37.17
2022-11-09T01:06:21.645Z,38.17
2022-11-09T01:08:50.347Z,36.50
2022-11-09T01:11:20.580Z,36.50
2022-11-09T01:13:48.934Z,37.00
2022-11-09T01:16:20.638Z,37.47
2022-11-09T01:18:49.581Z,36.70
2022-11-09T01:21:17.746Z,35.77
2022-11-09T01:23:45.879Z,35.77
2022-11-09T01:26:15.510Z,34.60
2022-11-09T01:28:44.028Z,34.23
2022-11-09T01:31:13.728Z,32.60
2022-11-09T01:33:43.537Z,33.17
2022-11-09T01:36:13.264Z,33.70
2022-11-09T01:38:41.920Z,34.80
2022-11-09T01:41:14.124Z,33.43
2022-11-09T01:43:42.269Z,33.90
2022-11-09T01:46:20.204Z,35.27
2022-11-09T01:48:53.697Z,33.57
2022-11-09T01:51:28.083Z,33.23
2022-11-09T01:54:00.333Z,34.20
2022-11-09T01:56:29.277Z,34.33
2022-11-09T01:59:01.859Z,32.30
2022-11-09T02:01:30.935Z,31.63
2022-11-09T02:04:06.480Z,33.93
2022-11-09T02:06:35.204Z,32.40
2022-11-09T02:09:09.339Z,32.87
2022-11-09T02:11:39.102Z,31.33
2022-11-09T02:14:08.215Z,33.33
2022-11-09T02:16:37.006Z,32.63
2022-11-09T02:19:06.692Z,33.17
2022-11-09T02:21:36.509Z,32.80
2022-11-09T02:24:04.841Z,32.07
2022-11-09T02:26:39.938Z,33.17
2022-11-09T02:29:11.125Z,32.73
2022-11-09T02:31:43.403Z,32.67
2022-11-09T02:34:15.152Z,31.70
2022-11-09T02:36:44.837Z,32.93
2022-11-09T02:39:14.348Z,32.20
2022-11-09T02:41:47.069Z,32.73
2022-11-09T02:44:16.867Z,32.13
2022-11-09T02:46:45.031Z,32.97
2022-11-09T02:49:13.385Z,31.70
2022-11-09T02:51:41.722Z,32.40
2022-11-09T02:54:11.290Z,32.87
2022-11-09T02:56:39.523Z,32.23
2022-11-09T02:59:07.661Z,32.20
2022-11-09T03:01:35.897Z,31.73
2022-11-09T03:04:04.178Z,32.10
2022-11-09T03:06:35.464Z,32.40
2022-11-09T03:09:05.383Z,31.53
2022-11-09T03:11:35.197Z,32.37
2022-11-09T03:14:03.542Z,32.03
2022-11-09T03:16:31.973Z,32.00
2022-11-09T03:19:00.476Z,34.57
2022-11-09T03:21:30.038Z,34.93
2022-11-09T03:23:58.306Z,36.00
2022-11-09T03:26:26.550Z,35.07
2022-11-09T03:28:56.224Z,35.70
2022-11-09T03:31:24.461Z,35.53
2022-11-09T03:33:52.637Z,33.83
2022-11-09T03:36:20.787Z,33.40
2022-11-09T03:38:49.023Z,34.07
2022-11-09T03:41:17.178Z,35.17
2022-11-09T03:43:45.349Z,34.33
2022-11-09T03:46:14.911Z,35.07
2022-11-09T03:48:43.047Z,33.03
2022-11-09T03:51:11.425Z,33.17
2022-11-09T03:53:39.593Z,33.40
2022-11-09T03:56:08.398Z,34.37
2022-11-09T03:58:36.552Z,32.87
2022-11-09T04:01:05.146Z,34.97
2022-11-09T04:03:34.736Z,34.77
2022-11-09T04:06:02.896Z,33.93
2022-11-09T04:08:31.561Z,33.43
2022-11-09T04:10:59.937Z,33.73
2022-11-09T04:13:28.086Z,31.23
2022-11-09T04:15:56.286Z,32.57
2022-11-09T04:18:24.445Z,30.57
2022-11-09T04:20:54.005Z,31.53
2022-11-09T04:23:22.566Z,29.50
2022-11-09T04:25:50.946Z,28.73
2022-11-09T04:28:19.379Z,27.80
2022-11-09T04:30:47.534Z,27.80
2022-11-09T04:33:15.831Z,26.73
2022-11-09T04:35:43.964Z,28.33
2022-11-09T04:38:15.290Z,27.93
2022-11-09T04:40:43.778Z,26.57
2022-11-09T04:43:15.950Z,26.10
2022-11-09T04:45:44.429Z,26.53
2022-11-09T04:48:13.239Z,24.70
2022-11-09T04:50:41.346Z,26.03
2022-11-09T04:53:11.078Z,25.13
2022-11-09T04:55:42.537Z,24.33
2022-11-09T04:58:11.252Z,25.50
2022-11-09T05:00:40.914Z,24.83
2022-11-09T05:03:09.481Z,23.83
2022-11-09T05:05:44.044Z,23.83
2022-11-09T05:08:15.257Z,23.63
2022-11-09T05:10:44.907Z,22.33
2022-11-09T05:13:14.247Z,22.63
2022-11-09T05:15:43.014Z,21.73
2022-11-09T05:18:11.777Z,22.27
2022-11-09T05:20:39.932Z,20.77
2022-11-09T05:23:25.264Z,20.87
2022-11-09T05:25:54.820Z,20.97
2022-11-09T05:28:22.982Z,21.30
2022-11-09T05:30:51.174Z,21.03
2022-11-09T05:33:19.681Z,21.43
2022-11-09T05:35:48.052Z,20.93
2022-11-09T05:38:16.290Z,20.53
2022-11-09T05:40:44.450Z,20.33
2022-11-09T05:43:13.995Z,19.63
2022-11-09T05:45:43.844Z,20.90
2022-11-09T05:48:12.943Z,20.57
2022-11-09T05:50:42.632Z,21.47
2022-11-09T05:53:12.324Z,20.23
2022-11-09T05:55:41.031Z,21.33
2022-11-09T05:58:09.414Z,21.30
2022-11-09T06:00:39.106Z,20.33
2022-11-09T06:03:08.855Z,20.87
2022-11-09T06:05:38.662Z,19.97
2022-11-09T06:08:08.532Z,20.17
2022-11-09T06:10:36.692Z,21.70
2022-11-09T06:13:05.182Z,20.33
2022-11-09T06:15:33.421Z,20.80
2022-11-09T06:18:02.948Z,20.23
2022-11-09T06:20:31.395Z,19.23
2022-11-09T06:23:03.495Z,19.03
2022-11-09T06:25:33.211Z,18.60
2022-11-09T06:28:02.179Z,17.80
2022-11-09T06:30:30.405Z,17.50
2022-11-09T06:33:04.195Z,17.20
2022-11-09T06:35:32.391Z,15.57
2022-11-09T06:38:01.442Z,15.80
2022-11-09T06:40:30.206Z,15.87
2022-11-09T06:42:59.225Z,15.23
2022-11-09T06:45:28.687Z,14.77
2022-11-09T06:47:57.575Z,14.73
2022-11-09T06:50:28.807Z,14.07
2022-11-09T06:52:58.763Z,13.57
2022-11-09T06:55:27.838Z,14.67
2022-11-09T06:57:56.116Z,13.80
2022-11-09T07:00:25.208Z,14.03
2022-11-09T07:02:53.725Z,13.70
2022-11-09T07:05:22.110Z,14.40
2022-11-09T07:07:51.694Z,15.10
2022-11-09T07:10:20.282Z,13.90
2022-11-09T07:12:48.860Z,14.43
2022-11-09T07:15:18.502Z,14.50
2022-11-09T07:17:46.721Z,13.40
2022-11-09T07:20:15.157Z,15.13
2022-11-09T07:22:43.666Z,14.67
2022-11-09T07:25:13.972Z,15.17
2022-11-09T07:27:42.181Z,15.40
2022-11-09T07:30:11.605Z,15.13
2022-11-09T07:33:07.440Z,15.03
2022-11-09T07:35:30.111Z,14.80
2022-11-09T07:38:02.243Z,15.30
2022-11-09T07:40:32.289Z,14.20
2022-11-09T07:43:01.113Z,13.87
2022-11-09T07:45:30.227Z,13.97
2022-11-09T07:47:59.521Z,13.23
2022-11-09T07:50:28.998Z,13.83
2022-11-09T07:52:57.608Z,12.77
2022-11-09T07:55:26.856Z,12.90
2022-11-09T07:58:00.322Z,15.33
2022-11-09T08:00:30.136Z,15.93
2022-11-09T08:02:58.488Z,16.43
2022-11-09T08:05:27.168Z,15.83
2022-11-09T08:07:59.173Z,15.27
2022-11-09T08:10:28.806Z,14.20
2022-11-09T08:12:57.938Z,15.93
2022-11-09T08:15:28.449Z,16.23
2022-11-09T08:18:00.873Z,15.77
